Friday, November 17, 2017, 4:17 PM EST
Back to Local

KMGJ, Montgomery Orange Co Airport

Location: Montgomery, NY, United States Lat: 41.517
Local Time: 4:17 PM EST (21:17 GMT) Lon: -74.267
Time Zone: US/Eastern Elev: 354 ft

Show me the last for .
Show Decoded

2017-11-17 15:54 METAR KMGJ 172054Z AUTO 30010G16KT 10SM CLR 06/M09 A3007 RMK AO2 SLP186
                 T00611089 53015 =
2017-11-17 14:54 METAR KMGJ 171954Z AUTO 31008G17KT 10SM CLR 07/M09 A3005 RMK AO2 SLP178
                 T00721089 =
2017-11-17 13:54 METAR KMGJ 171854Z AUTO 29011KT 10SM CLR 08/M07 A3003 RMK AO2 SLP171 T00781067 =
2017-11-17 12:54 METAR KMGJ 171754Z AUTO 31010KT 10SM CLR 08/M07 A3003 RMK AO2 SLP170 T00781067
                 10078 20028 56010 =
2017-11-17 11:54 METAR KMGJ 171654Z AUTO 30015G23KT 10SM CLR 07/M07 A3004 RMK AO2 SLP173
                 T00671067 =
2017-11-17 10:54 METAR KMGJ 171554Z AUTO 31009G17KT 10SM CLR 06/M04 A3005 RMK AO2 SLP177
                 T00611044 =
2017-11-17 09:54 METAR KMGJ 171454Z AUTO 30013G21KT 10SM FEW038 05/M04 A3006 RMK AO2 SLP182
                 T00501044 51018 =
2017-11-17 08:54 METAR KMGJ 171354Z AUTO VRB05G19KT 10SM FEW036 04/M04 A3005 RMK AO2 SLP179
                 T00391039 =
2017-11-17 07:54 METAR KMGJ 171254Z AUTO 32016G24KT 10SM CLR 03/M04 A3002 RMK AO2 PK WND
                 31028/1208 SLP169 T00331044 =
2017-11-17 06:54 METAR KMGJ 171154Z AUTO 32014G22KT 10SM BKN037 03/M04 A3001 RMK AO2 SLP163
                 T00331039 10050 20028 51021 =
2017-11-17 05:54 METAR KMGJ 171054Z AUTO 30006KT 10SM BKN039 03/M03 A3000 RMK AO2 SLP160
                 T00331033 =
2017-11-17 04:54 METAR KMGJ 170954Z AUTO 31010G24KT 10SM BKN041 04/M04 A2997 RMK AO2 PK WND
                 31027/0914 SLP149 T00391039 =
2017-11-17 03:54 METAR KMGJ 170854Z AUTO 30009G21KT 10SM BKN047 04/M03 A2994 RMK AO2 SLP141
                 T00441033 53020 =
2017-11-17 02:54 METAR KMGJ 170754Z AUTO 30009G25KT 10SM BKN049 04/M04 A2992 RMK AO2 SLP133
                 T00441039 =
2017-11-17 01:54 METAR KMGJ 170654Z AUTO 30011G19KT 270V330 10SM FEW041 04/M02 A2990 RMK AO2
                 SLP128 T00441022 =
2017-11-17 00:54 METAR KMGJ 170554Z AUTO 30009G15KT 10SM FEW041 05/M02 A2988 RMK AO2 SLP121
                 T00501022 10072 20044 53008 =
2017-11-16 23:54 METAR KMGJ 170454Z AUTO 30012G21KT 10SM CLR 05/M01 A2987 RMK AO2 SLP117
                 T00501006 401390044 =
2017-11-16 22:54 METAR KMGJ 170354Z AUTO 28008G15KT 10SM FEW039 06/M01 A2986 RMK AO2 SLP112
                 T00611006 =
2017-11-16 21:54 METAR KMGJ 170254Z AUTO 27006KT 10SM FEW080 06/00 A2986 RMK AO2 SLP112 T00560000
                 53009 =
2017-11-16 20:54 METAR KMGJ 170154Z AUTO 29011KT 10SM SCT080 07/00 A2985 RMK AO2 SLP108 T00670000
                 =
2017-11-16 19:54 METAR KMGJ 170054Z AUTO 27008KT 10SM FEW043 SCT065 SCT080 07/01 A2983 RMK AO2
                 SLP103 T00670006 =
2017-11-16 18:54 METAR KMGJ 162354Z AUTO VRB04KT 10SM BKN044 BKN060 07/02 A2983 RMK AO2 SLP103
                 60000 T00670017 10139 20056 53020 =
2017-11-16 17:54 METAR KMGJ 162254Z AUTO 27009G16KT 10SM SCT037 BKN070 08/02 A2981 RMK AO2
                 RAB39E51 SLP096 P0000 T00780017 =
2017-11-16 16:54 METAR KMGJ 162154Z AUTO 28008KT 10SM BKN045 OVC060 08/01 A2979 RMK AO2 SLP087
                 T00830011 =

Support USWX by starting your Amazon purchase here.